sensor_id;sensor_type;location;lat;lon;timestamp;P1;durP1;ratioP1;P2;durP2;ratioP2
43670;SDS011;29267;50.906;7.248;2023-04-25T00:02:00;11.90;;;4.03;;
43670;SDS011;29267;50.906;7.248;2023-04-25T00:04:26;13.50;;;3.67;;
43670;SDS011;29267;50.906;7.248;2023-04-25T00:06:55;8.65;;;3.60;;
43670;SDS011;29267;50.906;7.248;2023-04-25T00:09:21;13.45;;;4.20;;
43670;SDS011;29267;50.906;7.248;2023-04-25T00:11:47;15.35;;;5.05;;
43670;SDS011;29267;50.906;7.248;2023-04-25T00:14:13;11.07;;;4.32;;
43670;SDS011;29267;50.906;7.248;2023-04-25T00:16:39;16.38;;;3.85;;
43670;SDS011;29267;50.906;7.248;2023-04-25T00:19:06;16.15;;;4.70;;
43670;SDS011;29267;50.906;7.248;2023-04-25T00:21:32;18.90;;;6.43;;
43670;SDS011;29267;50.906;7.248;2023-04-25T00:23:58;14.93;;;4.70;;
43670;SDS011;29267;50.906;7.248;2023-04-25T00:26:24;16.48;;;4.20;;
43670;SDS011;29267;50.906;7.248;2023-04-25T00:28:50;11.88;;;4.53;;
43670;SDS011;29267;50.906;7.248;2023-04-25T00:31:15;13.90;;;5.05;;
43670;SDS011;29267;50.906;7.248;2023-04-25T00:33:41;9.77;;;4.22;;
43670;SDS011;29267;50.906;7.248;2023-04-25T00:36:07;14.80;;;4.40;;
43670;SDS011;29267;50.906;7.248;2023-04-25T00:38:33;9.57;;;4.32;;
43670;SDS011;29267;50.906;7.248;2023-04-25T00:40:58;18.75;;;6.30;;
43670;SDS011;29267;50.906;7.248;2023-04-25T00:43:27;16.85;;;4.82;;
43670;SDS011;29267;50.906;7.248;2023-04-25T00:45:54;28.63;;;5.25;;
43670;SDS011;29267;50.906;7.248;2023-04-25T00:48:22;19.40;;;4.20;;
43670;SDS011;29267;50.906;7.248;2023-04-25T00:50:51;12.40;;;4.22;;
43670;SDS011;29267;50.906;7.248;2023-04-25T00:53:19;15.52;;;4.15;;
43670;SDS011;29267;50.906;7.248;2023-04-25T00:55:48;19.35;;;4.78;;
43670;SDS011;29267;50.906;7.248;2023-04-25T00:58:16;11.13;;;4.50;;
43670;SDS011;29267;50.906;7.248;2023-04-25T01:00:42;11.32;;;4.82;;
43670;SDS011;29267;50.906;7.248;2023-04-25T01:03:08;10.68;;;4.70;;
43670;SDS011;29267;50.906;7.248;2023-04-25T01:05:35;15.38;;;5.20;;
43670;SDS011;29267;50.906;7.248;2023-04-25T01:08:00;19.88;;;4.97;;
43670;SDS011;29267;50.906;7.248;2023-04-25T01:10:26;18.30;;;4.72;;
43670;SDS011;29267;50.906;7.248;2023-04-25T01:12:52;19.85;;;5.18;;
43670;SDS011;29267;50.906;7.248;2023-04-25T01:15:18;22.88;;;5.90;;
43670;SDS011;29267;50.906;7.248;2023-04-25T01:17:43;17.38;;;4.55;;
43670;SDS011;29267;50.906;7.248;2023-04-25T01:20:09;14.73;;;4.72;;
43670;SDS011;29267;50.906;7.248;2023-04-25T01:22:36;14.65;;;4.70;;
43670;SDS011;29267;50.906;7.248;2023-04-25T01:25:03;21.63;;;6.30;;
43670;SDS011;29267;50.906;7.248;2023-04-25T01:27:29;15.70;;;5.63;;
43670;SDS011;29267;50.906;7.248;2023-04-25T01:29:55;20.80;;;5.68;;
43670;SDS011;29267;50.906;7.248;2023-04-25T01:32:22;28.92;;;6.25;;
43670;SDS011;29267;50.906;7.248;2023-04-25T01:34:49;16.33;;;6.22;;
43670;SDS011;29267;50.906;7.248;2023-04-25T01:37:14;26.83;;;5.75;;
43670;SDS011;29267;50.906;7.248;2023-04-25T01:39:41;16.65;;;5.35;;
43670;SDS011;29267;50.906;7.248;2023-04-25T01:42:07;18.17;;;5.75;;
43670;SDS011;29267;50.906;7.248;2023-04-25T01:44:33;16.60;;;5.15;;
43670;SDS011;29267;50.906;7.248;2023-04-25T01:46:59;17.80;;;5.45;;
43670;SDS011;29267;50.906;7.248;2023-04-25T01:49:24;18.33;;;5.32;;
43670;SDS011;29267;50.906;7.248;2023-04-25T01:51:50;15.75;;;4.53;;
43670;SDS011;29267;50.906;7.248;2023-04-25T01:54:15;15.07;;;5.07;;
43670;SDS011;29267;50.906;7.248;2023-04-25T01:56:43;15.90;;;5.53;;
43670;SDS011;29267;50.906;7.248;2023-04-25T01:59:08;15.35;;;5.43;;
43670;SDS011;29267;50.906;7.248;2023-04-25T02:01:34;21.00;;;4.57;;
43670;SDS011;29267;50.906;7.248;2023-04-25T02:04:00;12.65;;;4.88;;
43670;SDS011;29267;50.906;7.248;2023-04-25T02:06:25;16.75;;;5.03;;
43670;SDS011;29267;50.906;7.248;2023-04-25T02:08:51;15.52;;;4.45;;
43670;SDS011;29267;50.906;7.248;2023-04-25T02:11:17;17.48;;;5.95;;
43670;SDS011;29267;50.906;7.248;2023-04-25T02:13:42;29.83;;;4.78;;
43670;SDS011;29267;50.906;7.248;2023-04-25T02:16:08;9.70;;;4.15;;
43670;SDS011;29267;50.906;7.248;2023-04-25T02:18:33;15.32;;;5.18;;
43670;SDS011;29267;50.906;7.248;2023-04-25T02:20:59;13.10;;;3.45;;
43670;SDS011;29267;50.906;7.248;2023-04-25T02:23:26;15.38;;;4.65;;
43670;SDS011;29267;50.906;7.248;2023-04-25T02:25:51;19.45;;;4.68;;
43670;SDS011;29267;50.906;7.248;2023-04-25T02:28:17;18.98;;;4.90;;
43670;SDS011;29267;50.906;7.248;2023-04-25T02:30:43;15.93;;;4.55;;
43670;SDS011;29267;50.906;7.248;2023-04-25T02:33:08;15.50;;;4.90;;
43670;SDS011;29267;50.906;7.248;2023-04-25T02:35:34;16.85;;;4.75;;
43670;SDS011;29267;50.906;7.248;2023-04-25T02:38:00;13.75;;;4.38;;
43670;SDS011;29267;50.906;7.248;2023-04-25T02:40:25;8.65;;;4.43;;
43670;SDS011;29267;50.906;7.248;2023-04-25T02:42:51;9.85;;;4.80;;
43670;SDS011;29267;50.906;7.248;2023-04-25T02:45:17;17.38;;;4.82;;
43670;SDS011;29267;50.906;7.248;2023-04-25T02:47:42;24.85;;;5.15;;
43670;SDS011;29267;50.906;7.248;2023-04-25T02:50:08;12.82;;;6.30;;
43670;SDS011;29267;50.906;7.248;2023-04-25T02:52:34;22.52;;;5.68;;
43670;SDS011;29267;50.906;7.248;2023-04-25T02:55:00;17.35;;;5.50;;
43670;SDS011;29267;50.906;7.248;2023-04-25T02:57:25;16.77;;;4.88;;
43670;SDS011;29267;50.906;7.248;2023-04-25T02:59:51;15.48;;;4.85;;
43670;SDS011;29267;50.906;7.248;2023-04-25T03:02:17;17.60;;;5.60;;
43670;SDS011;29267;50.906;7.248;2023-04-25T03:04:42;11.00;;;4.85;;
43670;SDS011;29267;50.906;7.248;2023-04-25T03:07:08;16.05;;;4.88;;
43670;SDS011;29267;50.906;7.248;2023-04-25T03:09:33;13.50;;;4.72;;
43670;SDS011;29267;50.906;7.248;2023-04-25T03:11:59;20.02;;;5.32;;
43670;SDS011;29267;50.906;7.248;2023-04-25T03:14:25;14.18;;;5.70;;
43670;SDS011;29267;50.906;7.248;2023-04-25T03:16:51;13.15;;;6.07;;
43670;SDS011;29267;50.906;7.248;2023-04-25T03:19:16;11.65;;;4.07;;
43670;SDS011;29267;50.906;7.248;2023-04-25T03:21:42;14.35;;;4.93;;
43670;SDS011;29267;50.906;7.248;2023-04-25T03:24:08;12.85;;;4.50;;
43670;SDS011;29267;50.906;7.248;2023-04-25T03:26:35;23.42;;;5.07;;
43670;SDS011;29267;50.906;7.248;2023-04-25T03:29:01;13.25;;;5.25;;
43670;SDS011;29267;50.906;7.248;2023-04-25T03:31:27;20.63;;;4.82;;
43670;SDS011;29267;50.906;7.248;2023-04-25T03:33:52;9.27;;;4.05;;
43670;SDS011;29267;50.906;7.248;2023-04-25T03:36:18;18.73;;;5.32;;
43670;SDS011;29267;50.906;7.248;2023-04-25T03:38:43;9.45;;;4.18;;
43670;SDS011;29267;50.906;7.248;2023-04-25T03:41:09;18.17;;;4.68;;
43670;SDS011;29267;50.906;7.248;2023-04-25T03:43:35;18.23;;;4.78;;
43670;SDS011;29267;50.906;7.248;2023-04-25T03:46:00;16.10;;;5.22;;
43670;SDS011;29267;50.906;7.248;2023-04-25T03:48:26;15.30;;;5.13;;
43670;SDS011;29267;50.906;7.248;2023-04-25T03:50:53;22.05;;;4.95;;
43670;SDS011;29267;50.906;7.248;2023-04-25T03:53:19;20.02;;;5.63;;
43670;SDS011;29267;50.906;7.248;2023-04-25T03:55:45;15.30;;;5.55;;
43670;SDS011;29267;50.906;7.248;2023-04-25T03:58:10;16.83;;;4.57;;
43670;SDS011;29267;50.906;7.248;2023-04-25T04:00:36;10.52;;;4.35;;
43670;SDS011;29267;50.906;7.248;2023-04-25T04:03:02;25.00;;;6.07;;
43670;SDS011;29267;50.906;7.248;2023-04-25T04:05:27;12.80;;;4.95;;
43670;SDS011;29267;50.906;7.248;2023-04-25T04:07:53;8.75;;;4.20;;
43670;SDS011;29267;50.906;7.248;2023-04-25T04:10:20;13.25;;;4.15;;
43670;SDS011;29267;50.906;7.248;2023-04-25T04:12:46;14.90;;;4.65;;
43670;SDS011;29267;50.906;7.248;2023-04-25T04:15:11;13.02;;;4.30;;
43670;SDS011;29267;50.906;7.248;2023-04-25T04:17:37;17.00;;;3.88;;
43670;SDS011;29267;50.906;7.248;2023-04-25T04:20:03;11.93;;;3.70;;
43670;SDS011;29267;50.906;7.248;2023-04-25T04:22:29;13.50;;;3.80;;
43670;SDS011;29267;50.906;7.248;2023-04-25T04:24:55;10.75;;;3.35;;
43670;SDS011;29267;50.906;7.248;2023-04-25T04:27:21;20.95;;;4.38;;
43670;SDS011;29267;50.906;7.248;2023-04-25T04:29:47;8.63;;;3.47;;
43670;SDS011;29267;50.906;7.248;2023-04-25T04:32:13;22.48;;;4.20;;
43670;SDS011;29267;50.906;7.248;2023-04-25T04:34:39;12.32;;;4.10;;
43670;SDS011;29267;50.906;7.248;2023-04-25T04:37:06;13.88;;;3.97;;
43670;SDS011;29267;50.906;7.248;2023-04-25T04:39:32;20.35;;;4.55;;
43670;SDS011;29267;50.906;7.248;2023-04-25T04:41:58;19.67;;;4.63;;
43670;SDS011;29267;50.906;7.248;2023-04-25T04:44:24;9.90;;;3.65;;
43670;SDS011;29267;50.906;7.248;2023-04-25T04:46:50;8.75;;;3.38;;
43670;SDS011;29267;50.906;7.248;2023-04-25T04:49:16;6.65;;;3.08;;
43670;SDS011;29267;50.906;7.248;2023-04-25T04:51:42;8.43;;;3.65;;
43670;SDS011;29267;50.906;7.248;2023-04-25T04:54:11;9.20;;;3.75;;
43670;SDS011;29267;50.906;7.248;2023-04-25T04:56:37;16.23;;;4.03;;
43670;SDS011;29267;50.906;7.248;2023-04-25T04:59:03;10.98;;;3.72;;
43670;SDS011;29267;50.906;7.248;2023-04-25T05:01:28;13.07;;;3.88;;
43670;SDS011;29267;50.906;7.248;2023-04-25T05:03:57;7.88;;;3.08;;
43670;SDS011;29267;50.906;7.248;2023-04-25T05:06:26;13.00;;;3.72;;
43670;SDS011;29267;50.906;7.248;2023-04-25T05:08:53;12.85;;;3.92;;
43670;SDS011;29267;50.906;7.248;2023-04-25T05:11:19;11.82;;;3.53;;
43670;SDS011;29267;50.906;7.248;2023-04-25T05:13:45;11.02;;;4.95;;
43670;SDS011;29267;50.906;7.248;2023-04-25T05:16:11;8.95;;;4.55;;
43670;SDS011;29267;50.906;7.248;2023-04-25T05:18:38;10.15;;;4.00;;
43670;SDS011;29267;50.906;7.248;2023-04-25T05:21:04;8.95;;;4.00;;
43670;SDS011;29267;50.906;7.248;2023-04-25T05:23:31;12.52;;;3.72;;
43670;SDS011;29267;50.906;7.248;2023-04-25T05:25:57;10.40;;;4.10;;
43670;SDS011;29267;50.906;7.248;2023-04-25T05:28:23;14.05;;;4.50;;
43670;SDS011;29267;50.906;7.248;2023-04-25T05:30:48;12.60;;;4.05;;
43670;SDS011;29267;50.906;7.248;2023-04-25T05:33:14;6.80;;;3.60;;
43670;SDS011;29267;50.906;7.248;2023-04-25T05:35:40;10.65;;;4.97;;
43670;SDS011;29267;50.906;7.248;2023-04-25T05:38:06;8.13;;;4.18;;
43670;SDS011;29267;50.906;7.248;2023-04-25T05:40:31;9.93;;;3.88;;
43670;SDS011;29267;50.906;7.248;2023-04-25T05:42:57;12.55;;;4.90;;
43670;SDS011;29267;50.906;7.248;2023-04-25T05:45:23;18.05;;;5.78;;
43670;SDS011;29267;50.906;7.248;2023-04-25T05:47:48;18.35;;;4.07;;
43670;SDS011;29267;50.906;7.248;2023-04-25T05:50:14;16.27;;;5.43;;
43670;SDS011;29267;50.906;7.248;2023-04-25T05:52:39;9.40;;;4.22;;
43670;SDS011;29267;50.906;7.248;2023-04-25T05:55:05;12.95;;;5.38;;
43670;SDS011;29267;50.906;7.248;2023-04-25T05:57:31;14.25;;;4.65;;
43670;SDS011;29267;50.906;7.248;2023-04-25T05:59:57;16.08;;;4.70;;
43670;SDS011;29267;50.906;7.248;2023-04-25T06:02:22;15.07;;;4.40;;
43670;SDS011;29267;50.906;7.248;2023-04-25T06:04:51;16.83;;;4.95;;
43670;SDS011;29267;50.906;7.248;2023-04-25T06:07:17;13.13;;;4.18;;
43670;SDS011;29267;50.906;7.248;2023-04-25T06:09:43;13.70;;;4.97;;
43670;SDS011;29267;50.906;7.248;2023-04-25T06:12:09;14.10;;;5.18;;
43670;SDS011;29267;50.906;7.248;2023-04-25T06:14:35;11.68;;;4.57;;
43670;SDS011;29267;50.906;7.248;2023-04-25T06:17:00;12.95;;;4.97;;
43670;SDS011;29267;50.906;7.248;2023-04-25T06:19:32;8.52;;;4.32;;
43670;SDS011;29267;50.906;7.248;2023-04-25T06:21:58;10.73;;;3.95;;
43670;SDS011;29267;50.906;7.248;2023-04-25T06:24:23;16.30;;;4.78;;
43670;SDS011;29267;50.906;7.248;2023-04-25T06:26:49;11.27;;;2.90;;
43670;SDS011;29267;50.906;7.248;2023-04-25T06:29:15;17.40;;;3.80;;
43670;SDS011;29267;50.906;7.248;2023-04-25T06:31:40;15.18;;;4.75;;
43670;SDS011;29267;50.906;7.248;2023-04-25T06:34:06;21.35;;;6.05;;
43670;SDS011;29267;50.906;7.248;2023-04-25T06:36:31;13.55;;;4.38;;
43670;SDS011;29267;50.906;7.248;2023-04-25T06:38:57;19.50;;;3.80;;
43670;SDS011;29267;50.906;7.248;2023-04-25T06:41:22;20.00;;;3.17;;
43670;SDS011;29267;50.906;7.248;2023-04-25T06:43:48;12.55;;;4.65;;
43670;SDS011;29267;50.906;7.248;2023-04-25T06:46:13;15.88;;;3.92;;
43670;SDS011;29267;50.906;7.248;2023-04-25T06:48:39;15.77;;;3.95;;
43670;SDS011;29267;50.906;7.248;2023-04-25T06:51:04;17.67;;;3.30;;
43670;SDS011;29267;50.906;7.248;2023-04-25T06:53:30;10.73;;;3.60;;
43670;SDS011;29267;50.906;7.248;2023-04-25T06:55:56;9.60;;;4.50;;
43670;SDS011;29267;50.906;7.248;2023-04-25T06:58:21;17.05;;;3.70;;
43670;SDS011;29267;50.906;7.248;2023-04-25T07:00:47;11.13;;;3.83;;
43670;SDS011;29267;50.906;7.248;2023-04-25T07:03:13;10.77;;;2.53;;
43670;SDS011;29267;50.906;7.248;2023-04-25T07:05:38;14.48;;;4.45;;
43670;SDS011;29267;50.906;7.248;2023-04-25T07:08:04;11.90;;;3.05;;
43670;SDS011;29267;50.906;7.248;2023-04-25T07:10:30;9.32;;;3.15;;
43670;SDS011;29267;50.906;7.248;2023-04-25T07:12:55;14.57;;;3.60;;
43670;SDS011;29267;50.906;7.248;2023-04-25T07:15:21;17.98;;;3.72;;
43670;SDS011;29267;50.906;7.248;2023-04-25T07:17:46;10.68;;;2.83;;
43670;SDS011;29267;50.906;7.248;2023-04-25T07:20:12;9.95;;;2.40;;
43670;SDS011;29267;50.906;7.248;2023-04-25T07:22:38;9.93;;;2.30;;
43670;SDS011;29267;50.906;7.248;2023-04-25T07:25:04;8.57;;;2.63;;
43670;SDS011;29267;50.906;7.248;2023-04-25T07:27:30;13.65;;;2.58;;
43670;SDS011;29267;50.906;7.248;2023-04-25T07:29:56;11.95;;;2.33;;
43670;SDS011;29267;50.906;7.248;2023-04-25T07:32:22;7.93;;;2.53;;
43670;SDS011;29267;50.906;7.248;2023-04-25T07:34:48;15.57;;;2.63;;
43670;SDS011;29267;50.906;7.248;2023-04-25T07:37:13;10.15;;;2.55;;
43670;SDS011;29267;50.906;7.248;2023-04-25T07:39:40;8.75;;;2.33;;
43670;SDS011;29267;50.906;7.248;2023-04-25T07:42:05;15.35;;;2.78;;
43670;SDS011;29267;50.906;7.248;2023-04-25T07:44:33;10.80;;;2.20;;
43670;SDS011;29267;50.906;7.248;2023-04-25T07:47:03;8.48;;;2.20;;
43670;SDS011;29267;50.906;7.248;2023-04-25T07:49:36;14.70;;;1.92;;
43670;SDS011;29267;50.906;7.248;2023-04-25T07:52:02;8.05;;;2.40;;
43670;SDS011;29267;50.906;7.248;2023-04-25T07:54:29;10.00;;;2.83;;
43670;SDS011;29267;50.906;7.248;2023-04-25T07:56:55;11.45;;;2.58;;
43670;SDS011;29267;50.906;7.248;2023-04-25T07:59:21;8.13;;;2.28;;
43670;SDS011;29267;50.906;7.248;2023-04-25T08:01:47;17.13;;;3.08;;
43670;SDS011;29267;50.906;7.248;2023-04-25T08:04:12;14.98;;;3.03;;
43670;SDS011;29267;50.906;7.248;2023-04-25T08:06:38;10.30;;;2.60;;
43670;SDS011;29267;50.906;7.248;2023-04-25T08:09:05;13.95;;;2.72;;
43670;SDS011;29267;50.906;7.248;2023-04-25T08:11:31;11.13;;;2.83;;
43670;SDS011;29267;50.906;7.248;2023-04-25T08:13:56;13.32;;;4.25;;
43670;SDS011;29267;50.906;7.248;2023-04-25T08:16:22;11.73;;;3.15;;
43670;SDS011;29267;50.906;7.248;2023-04-25T08:18:47;12.98;;;2.80;;
43670;SDS011;29267;50.906;7.248;2023-04-25T08:21:15;12.45;;;2.80;;
43670;SDS011;29267;50.906;7.248;2023-04-25T08:23:40;12.73;;;2.55;;
43670;SDS011;29267;50.906;7.248;2023-04-25T08:26:06;15.18;;;2.90;;
43670;SDS011;29267;50.906;7.248;2023-04-25T08:28:32;15.40;;;4.40;;
43670;SDS011;29267;50.906;7.248;2023-04-25T08:30:57;11.50;;;2.63;;
43670;SDS011;29267;50.906;7.248;2023-04-25T08:33:23;9.52;;;2.60;;
43670;SDS011;29267;50.906;7.248;2023-04-25T08:35:48;11.07;;;2.70;;
43670;SDS011;29267;50.906;7.248;2023-04-25T08:38:14;6.18;;;2.15;;
43670;SDS011;29267;50.906;7.248;2023-04-25T08:40:40;7.88;;;2.85;;
43670;SDS011;29267;50.906;7.248;2023-04-25T08:43:08;9.20;;;1.85;;
43670;SDS011;29267;50.906;7.248;2023-04-25T08:45:36;12.35;;;2.47;;
43670;SDS011;29267;50.906;7.248;2023-04-25T08:48:06;9.80;;;2.45;;
43670;SDS011;29267;50.906;7.248;2023-04-25T08:50:43;8.57;;;2.00;;
43670;SDS011;29267;50.906;7.248;2023-04-25T08:53:13;5.25;;;1.98;;
43670;SDS011;29267;50.906;7.248;2023-04-25T08:55:45;10.25;;;2.70;;
43670;SDS011;29267;50.906;7.248;2023-04-25T08:58:11;13.50;;;2.40;;
43670;SDS011;29267;50.906;7.248;2023-04-25T09:00:37;7.30;;;2.20;;
43670;SDS011;29267;50.906;7.248;2023-04-25T09:03:04;8.75;;;1.77;;
43670;SDS011;29267;50.906;7.248;2023-04-25T09:05:30;11.10;;;2.85;;
43670;SDS011;29267;50.906;7.248;2023-04-25T09:08:00;8.23;;;2.10;;
43670;SDS011;29267;50.906;7.248;2023-04-25T09:10:27;7.35;;;1.35;;
43670;SDS011;29267;50.906;7.248;2023-04-25T09:13:02;13.23;;;3.13;;
43670;SDS011;29267;50.906;7.248;2023-04-25T09:15:30;7.43;;;2.20;;
43670;SDS011;29267;50.906;7.248;2023-04-25T09:17:56;9.30;;;2.25;;
43670;SDS011;29267;50.906;7.248;2023-04-25T09:20:22;9.60;;;2.10;;
43670;SDS011;29267;50.906;7.248;2023-04-25T09:22:49;8.70;;;1.77;;
43670;SDS011;29267;50.906;7.248;2023-04-25T09:25:33;8.10;;;2.40;;
43670;SDS011;29267;50.906;7.248;2023-04-25T09:28:03;11.57;;;2.33;;
43670;SDS011;29267;50.906;7.248;2023-04-25T09:30:30;11.15;;;2.10;;
43670;SDS011;29267;50.906;7.248;2023-04-25T09:32:57;10.65;;;2.45;;
43670;SDS011;29267;50.906;7.248;2023-04-25T09:35:29;11.63;;;2.90;;
43670;SDS011;29267;50.906;7.248;2023-04-25T09:37:59;11.32;;;2.17;;
43670;SDS011;29267;50.906;7.248;2023-04-25T09:40:25;12.63;;;2.55;;
43670;SDS011;29267;50.906;7.248;2023-04-25T09:42:51;13.93;;;3.40;;
43670;SDS011;29267;50.906;7.248;2023-04-25T09:45:17;9.80;;;3.15;;
43670;SDS011;29267;50.906;7.248;2023-04-25T09:47:42;11.85;;;2.33;;
43670;SDS011;29267;50.906;7.248;2023-04-25T09:50:14;10.88;;;2.28;;
43670;SDS011;29267;50.906;7.248;2023-04-25T09:52:41;9.27;;;2.83;;
43670;SDS011;29267;50.906;7.248;2023-04-25T09:55:06;10.63;;;2.40;;
43670;SDS011;29267;50.906;7.248;2023-04-25T09:57:32;11.70;;;2.13;;
43670;SDS011;29267;50.906;7.248;2023-04-25T09:59:58;8.68;;;2.13;;
43670;SDS011;29267;50.906;7.248;2023-04-25T10:02:26;8.45;;;2.30;;
43670;SDS011;29267;50.906;7.248;2023-04-25T10:04:53;13.02;;;2.90;;
43670;SDS011;29267;50.906;7.248;2023-04-25T10:07:23;8.75;;;2.95;;
43670;SDS011;29267;50.906;7.248;2023-04-25T10:10:00;7.93;;;2.33;;
43670;SDS011;29267;50.906;7.248;2023-04-25T10:12:28;9.02;;;1.77;;
43670;SDS011;29267;50.906;7.248;2023-04-25T10:14:55;11.43;;;3.40;;
43670;SDS011;29267;50.906;7.248;2023-04-25T10:17:23;11.98;;;2.30;;
43670;SDS011;29267;50.906;7.248;2023-04-25T10:19:48;6.55;;;2.00;;
43670;SDS011;29267;50.906;7.248;2023-04-25T10:22:16;14.73;;;2.95;;
43670;SDS011;29267;50.906;7.248;2023-04-25T10:24:45;10.32;;;2.03;;
43670;SDS011;29267;50.906;7.248;2023-04-25T10:27:12;11.82;;;2.47;;
43670;SDS011;29267;50.906;7.248;2023-04-25T10:29:38;11.70;;;2.60;;
43670;SDS011;29267;50.906;7.248;2023-04-25T10:32:03;9.10;;;2.50;;
43670;SDS011;29267;50.906;7.248;2023-04-25T10:34:42;5.53;;;1.90;;
43670;SDS011;29267;50.906;7.248;2023-04-25T10:37:11;4.38;;;1.75;;
43670;SDS011;29267;50.906;7.248;2023-04-25T10:39:38;7.95;;;2.15;;
43670;SDS011;29267;50.906;7.248;2023-04-25T10:42:05;9.93;;;1.85;;
43670;SDS011;29267;50.906;7.248;2023-04-25T10:44:32;5.38;;;2.38;;
43670;SDS011;29267;50.906;7.248;2023-04-25T10:46:59;12.18;;;3.13;;
43670;SDS011;29267;50.906;7.248;2023-04-25T10:54:42;6.55;;;1.67;;
43670;SDS011;29267;50.906;7.248;2023-04-25T10:57:32;8.07;;;2.08;;
43670;SDS011;29267;50.906;7.248;2023-04-25T11:02:30;9.27;;;1.95;;
43670;SDS011;29267;50.906;7.248;2023-04-25T11:04:56;8.38;;;1.65;;
43670;SDS011;29267;50.906;7.248;2023-04-25T11:10:03;8.45;;;2.22;;
43670;SDS011;29267;50.906;7.248;2023-04-25T11:12:30;7.68;;;1.40;;
43670;SDS011;29267;50.906;7.248;2023-04-25T11:15:00;9.98;;;2.95;;
43670;SDS011;29267;50.906;7.248;2023-04-25T11:17:27;8.32;;;1.45;;
43670;SDS011;29267;50.906;7.248;2023-04-25T11:19:53;6.93;;;1.63;;
43670;SDS011;29267;50.906;7.248;2023-04-25T11:22:19;4.90;;;1.30;;
43670;SDS011;29267;50.906;7.248;2023-04-25T11:24:46;7.88;;;1.83;;
43670;SDS011;29267;50.906;7.248;2023-04-25T11:27:12;9.18;;;2.20;;
43670;SDS011;29267;50.906;7.248;2023-04-25T11:29:38;7.05;;;2.00;;
43670;SDS011;29267;50.906;7.248;2023-04-25T11:32:03;10.35;;;1.67;;
43670;SDS011;29267;50.906;7.248;2023-04-25T11:34:30;6.07;;;1.67;;
43670;SDS011;29267;50.906;7.248;2023-04-25T11:36:57;9.50;;;1.80;;
43670;SDS011;29267;50.906;7.248;2023-04-25T11:39:24;4.40;;;1.58;;
43670;SDS011;29267;50.906;7.248;2023-04-25T11:41:51;10.05;;;1.75;;
43670;SDS011;29267;50.906;7.248;2023-04-25T11:44:17;7.78;;;2.08;;
43670;SDS011;29267;50.906;7.248;2023-04-25T11:46:44;7.22;;;1.92;;
43670;SDS011;29267;50.906;7.248;2023-04-25T11:49:10;3.72;;;1.30;;
43670;SDS011;29267;50.906;7.248;2023-04-25T11:51:46;6.70;;;1.75;;
43670;SDS011;29267;50.906;7.248;2023-04-25T11:54:13;3.58;;;1.70;;
43670;SDS011;29267;50.906;7.248;2023-04-25T11:56:42;5.80;;;1.83;;
43670;SDS011;29267;50.906;7.248;2023-04-25T11:59:12;6.80;;;2.47;;
43670;SDS011;29267;50.906;7.248;2023-04-25T12:01:39;8.15;;;2.10;;
43670;SDS011;29267;50.906;7.248;2023-04-25T12:06:39;5.88;;;2.13;;
43670;SDS011;29267;50.906;7.248;2023-04-25T12:09:10;6.45;;;1.50;;
43670;SDS011;29267;50.906;7.248;2023-04-25T12:11:47;5.82;;;1.85;;
43670;SDS011;29267;50.906;7.248;2023-04-25T12:14:21;4.13;;;1.73;;
43670;SDS011;29267;50.906;7.248;2023-04-25T12:16:48;5.20;;;1.40;;
43670;SDS011;29267;50.906;7.248;2023-04-25T12:19:14;4.22;;;1.38;;
43670;SDS011;29267;50.906;7.248;2023-04-25T12:21:41;4.35;;;1.88;;
43670;SDS011;29267;50.906;7.248;2023-04-25T12:24:16;4.47;;;1.65;;
43670;SDS011;29267;50.906;7.248;2023-04-25T12:26:47;3.85;;;1.23;;
43670;SDS011;29267;50.906;7.248;2023-04-25T12:29:17;4.47;;;1.40;;
43670;SDS011;29267;50.906;7.248;2023-04-25T12:31:47;4.45;;;1.40;;
43670;SDS011;29267;50.906;7.248;2023-04-25T12:34:13;8.20;;;1.67;;
43670;SDS011;29267;50.906;7.248;2023-04-25T12:36:39;8.15;;;1.58;;
43670;SDS011;29267;50.906;7.248;2023-04-25T12:39:05;3.17;;;1.20;;
43670;SDS011;29267;50.906;7.248;2023-04-25T12:41:31;4.80;;;1.60;;
43670;SDS011;29267;50.906;7.248;2023-04-25T12:43:57;7.30;;;1.92;;
43670;SDS011;29267;50.906;7.248;2023-04-25T12:46:23;5.97;;;1.38;;
43670;SDS011;29267;50.906;7.248;2023-04-25T12:48:49;2.25;;;1.17;;
43670;SDS011;29267;50.906;7.248;2023-04-25T12:51:14;7.55;;;1.25;;
43670;SDS011;29267;50.906;7.248;2023-04-25T12:53:40;7.13;;;1.67;;
43670;SDS011;29267;50.906;7.248;2023-04-25T12:56:09;5.68;;;1.50;;
43670;SDS011;29267;50.906;7.248;2023-04-25T12:58:35;5.93;;;1.40;;
43670;SDS011;29267;50.906;7.248;2023-04-25T13:01:00;4.15;;;1.63;;
43670;SDS011;29267;50.906;7.248;2023-04-25T13:03:26;3.83;;;1.73;;
43670;SDS011;29267;50.906;7.248;2023-04-25T13:05:51;14.52;;;3.63;;
43670;SDS011;29267;50.906;7.248;2023-04-25T13:08:20;4.15;;;1.48;;
43670;SDS011;29267;50.906;7.248;2023-04-25T13:10:47;3.25;;;1.60;;
43670;SDS011;29267;50.906;7.248;2023-04-25T13:13:13;5.20;;;1.90;;
43670;SDS011;29267;50.906;7.248;2023-04-25T13:15:38;4.18;;;1.60;;
43670;SDS011;29267;50.906;7.248;2023-04-25T13:18:04;4.03;;;1.20;;
43670;SDS011;29267;50.906;7.248;2023-04-25T13:20:33;4.50;;;1.33;;
43670;SDS011;29267;50.906;7.248;2023-04-25T13:22:58;1.73;;;1.23;;
43670;SDS011;29267;50.906;7.248;2023-04-25T13:25:24;9.80;;;1.75;;
43670;SDS011;29267;50.906;7.248;2023-04-25T13:27:50;5.60;;;1.10;;
43670;SDS011;29267;50.906;7.248;2023-04-25T13:30:16;6.00;;;1.42;;
43670;SDS011;29267;50.906;7.248;2023-04-25T13:32:41;3.10;;;1.15;;
43670;SDS011;29267;50.906;7.248;2023-04-25T13:35:08;4.75;;;1.38;;
43670;SDS011;29267;50.906;7.248;2023-04-25T13:37:36;3.75;;;1.63;;
43670;SDS011;29267;50.906;7.248;2023-04-25T13:40:03;3.72;;;1.10;;
43670;SDS011;29267;50.906;7.248;2023-04-25T13:42:31;5.93;;;1.50;;
43670;SDS011;29267;50.906;7.248;2023-04-25T13:44:57;3.47;;;1.42;;
43670;SDS011;29267;50.906;7.248;2023-04-25T13:47:22;3.28;;;1.50;;
43670;SDS011;29267;50.906;7.248;2023-04-25T13:49:48;3.60;;;1.67;;
43670;SDS011;29267;50.906;7.248;2023-04-25T13:52:14;4.88;;;1.67;;
43670;SDS011;29267;50.906;7.248;2023-04-25T13:54:40;5.00;;;1.77;;
43670;SDS011;29267;50.906;7.248;2023-04-25T13:57:06;8.65;;;1.50;;
43670;SDS011;29267;50.906;7.248;2023-04-25T13:59:32;11.32;;;1.90;;
43670;SDS011;29267;50.906;7.248;2023-04-25T14:01:57;6.55;;;1.45;;
43670;SDS011;29267;50.906;7.248;2023-04-25T14:04:23;5.80;;;1.35;;
43670;SDS011;29267;50.906;7.248;2023-04-25T14:06:50;3.08;;;1.58;;
43670;SDS011;29267;50.906;7.248;2023-04-25T14:09:16;7.18;;;1.48;;
43670;SDS011;29267;50.906;7.248;2023-04-25T14:11:42;7.60;;;1.90;;
43670;SDS011;29267;50.906;7.248;2023-04-25T14:14:07;12.15;;;1.50;;
43670;SDS011;29267;50.906;7.248;2023-04-25T14:16:33;6.10;;;1.20;;
43670;SDS011;29267;50.906;7.248;2023-04-25T14:19:00;6.53;;;1.35;;
43670;SDS011;29267;50.906;7.248;2023-04-25T14:21:26;7.38;;;1.30;;
43670;SDS011;29267;50.906;7.248;2023-04-25T14:23:53;7.38;;;1.67;;
43670;SDS011;29267;50.906;7.248;2023-04-25T14:26:19;4.97;;;1.45;;
43670;SDS011;29267;50.906;7.248;2023-04-25T14:28:44;6.10;;;1.40;;
43670;SDS011;29267;50.906;7.248;2023-04-25T14:31:10;3.05;;;1.30;;
43670;SDS011;29267;50.906;7.248;2023-04-25T14:33:35;3.00;;;1.30;;
43670;SDS011;29267;50.906;7.248;2023-04-25T14:36:04;3.20;;;1.50;;
43670;SDS011;29267;50.906;7.248;2023-04-25T14:38:30;13.15;;;2.10;;
43670;SDS011;29267;50.906;7.248;2023-04-25T14:40:55;6.07;;;2.25;;
43670;SDS011;29267;50.906;7.248;2023-04-25T14:43:21;5.40;;;1.48;;
43670;SDS011;29267;50.906;7.248;2023-04-25T14:45:47;4.85;;;1.50;;
43670;SDS011;29267;50.906;7.248;2023-04-25T14:48:12;9.18;;;1.65;;
43670;SDS011;29267;50.906;7.248;2023-04-25T14:50:38;4.68;;;1.48;;